Time;durP1;ratioP1;P1;durP2;ratioP2;P2;SDS_P1;SDS_P2;PMS_P1;PMS_P2;Temp;Humidity;BMP_temperature;BMP_pressure;BME280_temperature;BME280_humidity;BME280_pressure;Samples;Min_cycle;Max_cycle;Signal;HPM_P1;HPM_P2
2024/01/15 00:01:42;;;;;;;149.63;141.82;;;;;;;;;;5076725;28;20433;-62
2024/01/15 00:04:09;;;;;;;144.80;137.38;;;;;;;;;;5073865;28;20901;-61
2024/01/15 00:06:36;;;;;;;154.95;146.82;;;;;;;;;;5067695;28;20453;-62
2024/01/15 00:09:06;;;;;;;150.05;141.70;;;;;;;;;;5066640;28;20423;-62
2024/01/15 00:11:34;;;;;;;141.77;134.20;;;;;;;;;;5060183;28;20415;-61
2024/01/15 00:14:01;;;;;;;128.10;120.50;;;;;;;;;;5064780;28;20424;-61
2024/01/15 00:16:28;;;;;;;142.30;133.57;;;;;;;;;;5078547;28;20481;-61
2024/01/15 00:19:02;;;;;;;156.60;147.35;;;;;;;;;;5067439;28;20440;-61
2024/01/15 00:21:29;;;;;;;147.65;139.85;;;;;;;;;;5068679;28;20541;-61
2024/01/15 00:23:57;;;;;;;154.45;146.15;;;;;;;;;;5060961;28;20937;-61
2024/01/15 00:26:24;;;;;;;150.00;141.85;;;;;;;;;;5065096;28;20488;-61
2024/01/15 00:28:51;;;;;;;150.17;141.77;;;;;;;;;;5056613;28;21766;-62
2024/01/15 00:31:18;;;;;;;143.93;136.43;;;;;;;;;;5064855;28;20434;-62
2024/01/15 00:33:48;;;;;;;148.18;140.43;;;;;;;;;;5066438;28;20435;-62
2024/01/15 00:36:16;;;;;;;154.05;145.45;;;;;;;;;;5061817;28;20423;-62
2024/01/15 00:38:48;;;;;;;149.80;142.05;;;;;;;;;;5068072;28;20429;-61
2024/01/15 00:41:15;;;;;;;145.45;137.95;;;;;;;;;;5075239;28;20574;-62
2024/01/15 00:43:42;;;;;;;145.18;136.50;;;;;;;;;;5074101;28;20922;-62
2024/01/15 00:46:10;;;;;;;135.73;125.05;;;;;;;;;;5069460;28;20454;-62
2024/01/15 00:48:37;;;;;;;107.55;101.75;;;;;;;;;;5064301;28;20448;-62
2024/01/15 00:51:05;;;;;;;137.07;129.57;;;;;;;;;;5065260;28;20422;-62
2024/01/15 00:53:32;;;;;;;156.52;147.88;;;;;;;;;;5067279;28;20798;-61
2024/01/15 00:56:00;;;;;;;146.00;138.23;;;;;;;;;;5065560;28;20469;-62
2024/01/15 00:58:27;;;;;;;127.10;120.40;;;;;;;;;;5069607;28;20817;-62
2024/01/15 01:00:55;;;;;;;140.23;132.35;;;;;;;;;;5065795;28;20429;-62
2024/01/15 01:03:22;;;;;;;123.82;117.13;;;;;;;;;;5071115;28;20466;-62
2024/01/15 01:05:49;;;;;;;140.13;132.57;;;;;;;;;;5060251;28;20436;-62
2024/01/15 01:08:17;;;;;;;138.82;131.18;;;;;;;;;;5073849;28;20904;-61
2024/01/15 01:10:44;;;;;;;148.98;139.18;;;;;;;;;;5064912;28;20503;-62
2024/01/15 01:13:11;;;;;;;137.13;129.05;;;;;;;;;;5065125;28;20427;-62
2024/01/15 01:15:38;;;;;;;139.82;131.65;;;;;;;;;;5076645;28;20490;-62
2024/01/15 01:18:06;;;;;;;150.35;142.23;;;;;;;;;;5070861;28;20487;-62
2024/01/15 01:20:33;;;;;;;156.57;147.35;;;;;;;;;;5074361;28;21145;-62
2024/01/15 01:23:00;;;;;;;165.13;155.95;;;;;;;;;;5059427;28;20489;-62
2024/01/15 01:25:28;;;;;;;162.27;152.17;;;;;;;;;;5066628;28;20439;-62
2024/01/15 01:27:55;;;;;;;141.93;134.20;;;;;;;;;;5064976;28;20450;-62
2024/01/15 01:30:22;;;;;;;149.20;141.43;;;;;;;;;;5082312;28;20435;-62
2024/01/15 01:32:49;;;;;;;144.10;136.30;;;;;;;;;;5067782;28;20455;-62
2024/01/15 01:35:16;;;;;;;145.93;137.38;;;;;;;;;;5064678;28;20906;-62
2024/01/15 01:37:43;;;;;;;104.37;98.27;;;;;;;;;;5065857;28;20444;-62
2024/01/15 01:40:17;;;;;;;135.30;127.55;;;;;;;;;;5067995;28;20427;-63
2024/01/15 01:42:44;;;;;;;137.27;130.07;;;;;;;;;;5068211;28;20894;-62
2024/01/15 01:45:11;;;;;;;137.60;129.98;;;;;;;;;;5068594;28;20435;-62
2024/01/15 01:47:42;;;;;;;134.00;126.55;;;;;;;;;;5060194;28;20545;-62
2024/01/15 01:50:09;;;;;;;136.90;129.13;;;;;;;;;;5069585;28;20431;-62
2024/01/15 01:52:36;;;;;;;138.80;131.17;;;;;;;;;;5067531;28;20801;-62
2024/01/15 01:55:24;;;;;;;142.18;134.00;;;;;;;;;;5068997;28;20438;-62
2024/01/15 01:57:51;;;;;;;148.35;139.55;;;;;;;;;;5073802;28;20884;-62
2024/01/15 02:00:18;;;;;;;148.63;140.55;;;;;;;;;;5062271;28;20435;-62
2024/01/15 02:02:45;;;;;;;145.35;137.32;;;;;;;;;;5069671;28;20428;-62
2024/01/15 02:05:14;;;;;;;148.00;139.43;;;;;;;;;;5064184;28;20430;-62
2024/01/15 02:07:41;;;;;;;149.75;140.95;;;;;;;;;;5064958;28;20500;-62
2024/01/15 02:10:12;;;;;;;112.80;105.63;;;;;;;;;;5070328;28;20546;-62
2024/01/15 02:12:39;;;;;;;124.28;117.03;;;;;;;;;;5065606;28;20442;-62
2024/01/15 02:15:09;;;;;;;136.20;128.30;;;;;;;;;;5066078;28;20477;-62
2024/01/15 02:17:56;;;;;;;141.45;133.07;;;;;;;;;;5072581;28;20945;-62
2024/01/15 02:20:23;;;;;;;143.88;136.23;;;;;;;;;;5081662;28;20513;-62
2024/01/15 02:22:50;;;;;;;145.88;137.40;;;;;;;;;;5070679;28;20434;-62
2024/01/15 02:25:18;;;;;;;154.05;144.98;;;;;;;;;;5054924;28;20499;-62
2024/01/15 02:27:45;;;;;;;151.52;142.25;;;;;;;;;;5062594;28;20439;-62
2024/01/15 02:30:13;;;;;;;151.13;141.98;;;;;;;;;;5068133;28;20513;-62
2024/01/15 02:32:40;;;;;;;152.85;143.68;;;;;;;;;;5067529;28;20428;-62
2024/01/15 02:35:07;;;;;;;162.43;152.82;;;;;;;;;;5065639;28;20466;-62
2024/01/15 02:37:34;;;;;;;160.38;152.00;;;;;;;;;;5060183;28;20427;-62
2024/01/15 02:40:01;;;;;;;155.77;147.38;;;;;;;;;;5075228;28;20489;-62
2024/01/15 02:42:29;;;;;;;161.68;152.05;;;;;;;;;;5070639;28;20438;-61
2024/01/15 02:44:56;;;;;;;153.48;144.80;;;;;;;;;;5068066;28;20433;-62
2024/01/15 02:47:23;;;;;;;153.93;145.48;;;;;;;;;;5071818;28;20427;-61
2024/01/15 02:49:51;;;;;;;151.93;143.82;;;;;;;;;;5066132;28;20512;-62
2024/01/15 02:52:18;;;;;;;150.10;142.05;;;;;;;;;;5072946;28;20783;-62
2024/01/15 02:54:45;;;;;;;158.77;149.45;;;;;;;;;;5082340;28;20511;-61
2024/01/15 02:57:16;;;;;;;146.63;138.97;;;;;;;;;;5068013;28;20427;-62
2024/01/15 02:59:43;;;;;;;105.10;98.00;;;;;;;;;;5071949;28;20514;-62
2024/01/15 03:02:10;;;;;;;126.95;120.40;;;;;;;;;;5072056;28;20467;-62
2024/01/15 03:04:37;;;;;;;129.35;122.55;;;;;;;;;;5086030;28;20505;-62
2024/01/15 03:07:04;;;;;;;136.88;128.18;;;;;;;;;;5075097;28;20442;-62
2024/01/15 03:09:31;;;;;;;137.93;130.13;;;;;;;;;;5083600;28;20997;-62
2024/01/15 03:11:59;;;;;;;141.73;133.98;;;;;;;;;;5079749;28;20426;-62
2024/01/15 03:14:26;;;;;;;141.75;134.43;;;;;;;;;;5076021;28;20428;-62
2024/01/15 03:16:54;;;;;;;143.43;135.23;;;;;;;;;;5066805;28;21169;-62
2024/01/15 03:19:24;;;;;;;143.13;135.33;;;;;;;;;;5084382;28;20430;-62
2024/01/15 03:21:52;;;;;;;143.18;135.40;;;;;;;;;;5060732;28;21152;-62
2024/01/15 03:24:28;;;;;;;144.07;135.98;;;;;;;;;;5074592;28;20446;-62
2024/01/15 03:26:55;;;;;;;129.98;122.97;;;;;;;;;;5059468;28;20446;-62
2024/01/15 03:29:22;;;;;;;117.47;110.45;;;;;;;;;;5059586;28;21395;-62
2024/01/15 03:31:49;;;;;;;121.60;114.72;;;;;;;;;;5059183;28;20444;-62
2024/01/15 03:34:19;;;;;;;117.03;110.72;;;;;;;;;;5063951;28;20466;-62
2024/01/15 03:36:49;;;;;;;126.10;119.28;;;;;;;;;;5069452;28;20423;-62
2024/01/15 03:39:16;;;;;;;122.85;116.30;;;;;;;;;;5063808;28;20446;-62
2024/01/15 03:41:43;;;;;;;124.38;117.65;;;;;;;;;;5054340;28;20870;-62
2024/01/15 03:44:11;;;;;;;137.43;129.52;;;;;;;;;;5065817;28;20588;-62
2024/01/15 03:46:38;;;;;;;130.60;123.23;;;;;;;;;;5069879;28;20435;-62
2024/01/15 03:49:11;;;;;;;122.57;116.03;;;;;;;;;;5064680;28;20922;-62
2024/01/15 03:51:41;;;;;;;124.78;118.00;;;;;;;;;;5068505;28;20431;-62
2024/01/15 03:54:08;;;;;;;141.35;132.95;;;;;;;;;;5063862;28;20998;-61
2024/01/15 03:56:35;;;;;;;146.43;137.98;;;;;;;;;;5066467;28;20925;-61
2024/01/15 03:59:03;;;;;;;123.10;115.80;;;;;;;;;;5073586;28;20435;-61
2024/01/15 04:01:33;;;;;;;99.45;93.65;;;;;;;;;;5060775;28;20440;-61
2024/01/15 04:04:00;;;;;;;130.25;122.05;;;;;;;;;;5064849;28;20466;-61
2024/01/15 04:06:27;;;;;;;98.15;92.38;;;;;;;;;;5070348;28;20438;-61
2024/01/15 04:08:55;;;;;;;94.15;88.55;;;;;;;;;;5063534;28;20427;-61
2024/01/15 04:11:22;;;;;;;103.72;97.82;;;;;;;;;;5066302;28;20462;-61
2024/01/15 04:13:49;;;;;;;101.85;96.03;;;;;;;;;;5063246;28;21727;-61
2024/01/15 04:16:16;;;;;;;115.22;108.07;;;;;;;;;;5075723;28;21322;-61
2024/01/15 04:18:43;;;;;;;119.53;111.67;;;;;;;;;;5067574;28;20464;-61
2024/01/15 04:21:13;;;;;;;98.18;92.63;;;;;;;;;;5061930;28;20520;-62
2024/01/15 04:23:40;;;;;;;104.03;98.25;;;;;;;;;;5063967;28;20431;-61
2024/01/15 04:26:07;;;;;;;112.60;106.28;;;;;;;;;;5065092;28;20514;-61
2024/01/15 04:28:34;;;;;;;108.88;102.47;;;;;;;;;;5064188;28;20509;-62
2024/01/15 04:31:02;;;;;;;98.00;92.55;;;;;;;;;;5062719;28;20416;-61
2024/01/15 04:33:30;;;;;;;106.03;99.65;;;;;;;;;;5065548;28;20427;-61
2024/01/15 04:35:57;;;;;;;116.85;110.25;;;;;;;;;;5063804;28;20427;-62
2024/01/15 04:38:27;;;;;;;94.28;88.88;;;;;;;;;;5067341;28;20512;-61
2024/01/15 04:40:54;;;;;;;92.75;87.72;;;;;;;;;;5068050;28;20910;-61
2024/01/15 04:43:24;;;;;;;87.07;81.72;;;;;;;;;;5069258;28;20451;-62
2024/01/15 04:45:52;;;;;;;90.45;85.60;;;;;;;;;;5069519;28;20427;-61
2024/01/15 04:48:22;;;;;;;101.40;95.97;;;;;;;;;;5059744;28;20433;-61
2024/01/15 04:50:52;;;;;;;107.25;101.18;;;;;;;;;;5068370;28;20423;-61
2024/01/15 04:53:22;;;;;;;121.27;114.47;;;;;;;;;;5058850;28;20484;-61
2024/01/15 04:55:49;;;;;;;92.82;87.35;;;;;;;;;;5066764;28;20582;-61
2024/01/15 04:58:16;;;;;;;79.10;74.33;;;;;;;;;;5059943;28;20420;-61
2024/01/15 05:00:44;;;;;;;85.18;80.38;;;;;;;;;;5064554;28;20439;-61
2024/01/15 05:03:11;;;;;;;97.03;91.57;;;;;;;;;;5066503;28;20517;-62
2024/01/15 05:05:38;;;;;;;101.45;95.75;;;;;;;;;;5069444;28;20937;-61
2024/01/15 05:08:06;;;;;;;92.95;87.88;;;;;;;;;;5067371;28;20491;-61
2024/01/15 05:10:33;;;;;;;99.13;93.78;;;;;;;;;;5067407;28;20463;-61
2024/01/15 05:13:00;;;;;;;95.93;90.30;;;;;;;;;;5067322;28;21252;-61
2024/01/15 05:15:29;;;;;;;94.50;89.45;;;;;;;;;;5078364;28;20920;-62
2024/01/15 05:17:56;;;;;;;102.97;97.32;;;;;;;;;;5060306;28;20956;-65
2024/01/15 05:20:24;;;;;;;94.00;88.70;;;;;;;;;;5072105;28;20496;-62
2024/01/15 05:22:51;;;;;;;106.78;100.68;;;;;;;;;;5070006;28;20431;-61
2024/01/15 05:25:18;;;;;;;102.22;96.65;;;;;;;;;;5072612;28;20435;-61
2024/01/15 05:27:45;;;;;;;96.38;90.43;;;;;;;;;;5069807;28;20439;-61
2024/01/15 05:30:13;;;;;;;98.73;93.40;;;;;;;;;;5070893;28;20435;-61
2024/01/15 05:32:42;;;;;;;101.03;94.93;;;;;;;;;;5069609;28;20427;-61
2024/01/15 05:35:10;;;;;;;130.00;122.78;;;;;;;;;;5068186;28;20428;-61
2024/01/15 05:37:37;;;;;;;104.03;97.95;;;;;;;;;;5068375;28;20438;-61
2024/01/15 05:40:04;;;;;;;98.55;92.75;;;;;;;;;;5068771;28;20439;-62
2024/01/15 05:42:32;;;;;;;93.45;87.95;;;;;;;;;;5077100;28;20495;-61
2024/01/15 05:44:59;;;;;;;117.10;110.40;;;;;;;;;;5082428;28;20498;-61
2024/01/15 05:47:27;;;;;;;96.93;91.43;;;;;;;;;;5073073;28;20427;-61
2024/01/15 05:49:54;;;;;;;103.35;97.38;;;;;;;;;;5067725;28;21098;-61
2024/01/15 05:52:25;;;;;;;82.00;77.32;;;;;;;;;;5068370;28;20457;-61
2024/01/15 05:54:53;;;;;;;94.70;89.30;;;;;;;;;;5072836;28;20423;-61
2024/01/15 05:57:20;;;;;;;100.88;95.45;;;;;;;;;;5077945;28;20421;-61
2024/01/15 05:59:47;;;;;;;102.68;96.97;;;;;;;;;;5068044;28;20465;-61
2024/01/15 06:02:18;;;;;;;111.22;104.80;;;;;;;;;;5074788;28;20437;-61
2024/01/15 06:04:45;;;;;;;84.40;79.28;;;;;;;;;;5070930;28;20519;-61
2024/01/15 06:07:26;;;;;;;82.43;77.63;;;;;;;;;;5069255;28;20884;-61
2024/01/15 06:09:53;;;;;;;89.72;84.35;;;;;;;;;;5085128;28;20524;-61
2024/01/15 06:12:21;;;;;;;97.35;92.07;;;;;;;;;;5068834;28;20893;-61
2024/01/15 06:14:48;;;;;;;111.40;104.30;;;;;;;;;;5066897;28;20432;-61
2024/01/15 06:17:15;;;;;;;101.93;96.22;;;;;;;;;;5076532;28;20970;-61
2024/01/15 06:19:42;;;;;;;100.32;94.95;;;;;;;;;;5069272;28;20432;-61
2024/01/15 06:22:10;;;;;;;98.43;92.53;;;;;;;;;;5071309;28;20491;-61
2024/01/15 06:24:37;;;;;;;109.32;102.63;;;;;;;;;;5076333;28;20488;-61
2024/01/15 06:27:04;;;;;;;111.63;105.03;;;;;;;;;;5076419;28;20431;-61
2024/01/15 06:29:32;;;;;;;97.10;91.28;;;;;;;;;;5064996;28;21131;-61
2024/01/15 06:31:59;;;;;;;106.78;100.55;;;;;;;;;;5061363;28;20453;-61
2024/01/15 06:34:26;;;;;;;103.60;98.10;;;;;;;;;;5068913;28;20443;-61
2024/01/15 06:36:54;;;;;;;101.80;96.20;;;;;;;;;;5075995;28;20537;-61
2024/01/15 06:39:21;;;;;;;113.75;107.63;;;;;;;;;;5068038;28;20423;-61
2024/01/15 06:41:48;;;;;;;110.30;104.38;;;;;;;;;;5065531;28;20481;-61
2024/01/15 06:44:15;;;;;;;110.28;104.22;;;;;;;;;;5077000;28;20463;-61
2024/01/15 06:46:43;;;;;;;99.95;94.50;;;;;;;;;;5066287;28;20455;-62
2024/01/15 06:49:11;;;;;;;98.65;93.32;;;;;;;;;;5062500;28;20459;-61
2024/01/15 06:51:38;;;;;;;106.10;100.53;;;;;;;;;;5075966;28;20424;-61
2024/01/15 06:54:05;;;;;;;99.90;94.30;;;;;;;;;;5066655;28;20423;-61
2024/01/15 06:56:36;;;;;;;106.10;100.57;;;;;;;;;;5071126;28;20427;-61
2024/01/15 06:59:03;;;;;;;104.15;98.63;;;;;;;;;;5065341;28;20428;-61
2024/01/15 07:01:30;;;;;;;87.67;82.63;;;;;;;;;;5058202;28;20490;-60
2024/01/15 07:03:57;;;;;;;114.65;108.63;;;;;;;;;;5053584;28;20423;-60
2024/01/15 07:06:25;;;;;;;109.40;103.55;;;;;;;;;;5062955;28;20450;-61
2024/01/15 07:08:52;;;;;;;109.20;103.00;;;;;;;;;;5065411;28;20427;-60
2024/01/15 07:11:19;;;;;;;106.32;100.57;;;;;;;;;;5063779;28;20487;-61
2024/01/15 07:13:49;;;;;;;121.15;114.30;;;;;;;;;;5068145;28;21168;-61
2024/01/15 07:16:16;;;;;;;118.40;111.93;;;;;;;;;;5066000;28;21004;-60
2024/01/15 07:19:03;;;;;;;114.27;107.67;;;;;;;;;;5070375;28;20430;-60
2024/01/15 07:21:30;;;;;;;130.38;123.38;;;;;;;;;;5067028;28;21254;-60
2024/01/15 07:23:58;;;;;;;116.53;110.18;;;;;;;;;;5062574;28;20427;-61
2024/01/15 07:26:26;;;;;;;115.13;108.72;;;;;;;;;;5064721;28;20467;-61
2024/01/15 07:28:53;;;;;;;111.82;105.25;;;;;;;;;;5073771;28;20483;-60
2024/01/15 07:31:21;;;;;;;126.38;119.07;;;;;;;;;;5064641;28;20431;-61
2024/01/15 07:33:48;;;;;;;145.63;137.77;;;;;;;;;;5075961;28;20438;-61
2024/01/15 07:36:16;;;;;;;126.75;120.20;;;;;;;;;;5075704;28;20944;-60
2024/01/15 07:38:43;;;;;;;118.72;112.07;;;;;;;;;;5077739;28;20865;-60
2024/01/15 07:41:10;;;;;;;116.37;110.23;;;;;;;;;;5067596;28;20456;-60
2024/01/15 07:43:38;;;;;;;111.97;106.03;;;;;;;;;;5060324;28;20446;-61
2024/01/15 07:46:05;;;;;;;109.78;103.57;;;;;;;;;;5074663;28;20500;-61
2024/01/15 07:48:32;;;;;;;98.72;93.22;;;;;;;;;;5075600;28;20434;-61
2024/01/15 07:51:04;;;;;;;107.43;101.55;;;;;;;;;;5075325;28;20435;-61
2024/01/15 07:53:33;;;;;;;119.50;113.03;;;;;;;;;;5061861;28;20518;-62
2024/01/15 07:56:00;;;;;;;122.90;116.38;;;;;;;;;;5067137;28;20439;-61
2024/01/15 07:58:27;;;;;;;129.63;122.80;;;;;;;;;;5069866;28;20425;-61
2024/01/15 08:00:54;;;;;;;124.43;117.93;;;;;;;;;;5069178;28;20427;-61
2024/01/15 08:03:21;;;;;;;124.53;118.03;;;;;;;;;;5073317;28;20420;-61
2024/01/15 08:05:52;;;;;;;115.32;108.78;;;;;;;;;;5057549;28;20425;-61
2024/01/15 08:08:21;;;;;;;115.13;109.05;;;;;;;;;;5059507;28;20431;-61
2024/01/15 08:10:48;;;;;;;121.93;115.57;;;;;;;;;;5063067;28;20439;-61
2024/01/15 08:13:15;;;;;;;116.93;110.57;;;;;;;;;;5072519;28;20463;-61
2024/01/15 08:15:42;;;;;;;125.67;118.43;;;;;;;;;;5064927;28;20521;-61
2024/01/15 08:18:10;;;;;;;125.55;118.43;;;;;;;;;;5069694;28;20431;-61
2024/01/15 08:20:37;;;;;;;120.15;113.25;;;;;;;;;;5066754;28;20434;-60
2024/01/15 08:23:05;;;;;;;114.83;108.63;;;;;;;;;;5074165;28;20459;-61
2024/01/15 08:25:32;;;;;;;90.63;85.72;;;;;;;;;;5065638;28;20435;-61
2024/01/15 08:27:59;;;;;;;93.22;88.00;;;;;;;;;;5067511;28;20438;-61
2024/01/15 08:30:27;;;;;;;110.57;104.68;;;;;;;;;;5061487;28;20424;-61
2024/01/15 08:32:56;;;;;;;101.82;96.30;;;;;;;;;;5065545;28;20435;-61
2024/01/15 08:35:35;;;;;;;108.32;101.95;;;;;;;;;;5060972;28;20442;-61
2024/01/15 08:38:02;;;;;;;110.45;104.45;;;;;;;;;;5064903;28;20518;-61
2024/01/15 08:40:30;;;;;;;119.18;112.32;;;;;;;;;;5071773;28;20518;-61
2024/01/15 08:42:57;;;;;;;122.15;115.50;;;;;;;;;;5069400;28;20606;-61
2024/01/15 08:45:26;;;;;;;111.32;105.43;;;;;;;;;;5068867;28;20439;-61
2024/01/15 08:47:58;;;;;;;116.30;110.05;;;;;;;;;;5067746;28;20434;-61
2024/01/15 08:50:28;;;;;;;75.40;71.20;;;;;;;;;;5055338;28;20859;-61
2024/01/15 08:52:56;;;;;;;115.60;109.53;;;;;;;;;;5069937;28;20459;-61
2024/01/15 08:55:24;;;;;;;118.78;112.43;;;;;;;;;;5069930;28;20492;-61
2024/01/15 08:57:51;;;;;;;120.63;114.18;;;;;;;;;;5067013;28;20500;-61
2024/01/15 09:00:18;;;;;;;143.85;136.38;;;;;;;;;;5056394;28;20981;-61
2024/01/15 09:02:46;;;;;;;140.38;132.15;;;;;;;;;;5060868;28;20446;-61
2024/01/15 09:05:13;;;;;;;119.90;112.95;;;;;;;;;;5065543;28;20427;-61
2024/01/15 09:07:40;;;;;;;125.90;119.20;;;;;;;;;;5068944;28;20966;-61
2024/01/15 09:10:08;;;;;;;106.35;99.72;;;;;;;;;;5068392;28;21341;-61
2024/01/15 09:12:35;;;;;;;120.93;113.70;;;;;;;;;;5064039;28;20435;-60
2024/01/15 09:15:04;;;;;;;124.40;117.95;;;;;;;;;;5071862;28;20423;-60
2024/01/15 09:17:35;;;;;;;102.13;96.57;;;;;;;;;;5074949;28;20431;-61
2024/01/15 09:20:04;;;;;;;124.00;117.28;;;;;;;;;;5063741;28;20774;-61
2024/01/15 09:22:33;;;;;;;107.50;101.65;;;;;;;;;;5069980;28;20610;-60
2024/01/15 09:25:00;;;;;;;114.15;107.57;;;;;;;;;;5067716;28;20510;-60
2024/01/15 09:27:27;;;;;;;121.80;114.68;;;;;;;;;;5070216;28;20449;-60
2024/01/15 09:29:54;;;;;;;119.00;112.35;;;;;;;;;;5069007;28;20547;-61
2024/01/15 09:32:21;;;;;;;123.38;116.25;;;;;;;;;;5063753;28;20423;-61
2024/01/15 09:34:51;;;;;;;120.43;113.82;;;;;;;;;;5067130;28;20514;-61
2024/01/15 09:37:18;;;;;;;123.07;116.47;;;;;;;;;;5065942;28;20428;-61
2024/01/15 09:40:15;;;;;;;115.05;108.95;;;;;;;;;;5066011;28;20419;-60
2024/01/15 09:42:43;;;;;;;109.63;103.97;;;;;;;;;;5066652;28;20902;-61
2024/01/15 09:45:11;;;;;;;121.57;114.85;;;;;;;;;;5062693;28;20890;-61
2024/01/15 09:47:40;;;;;;;113.05;106.65;;;;;;;;;;5070357;28;20427;-61
2024/01/15 09:50:11;;;;;;;113.13;106.73;;;;;;;;;;5067351;28;20427;-61
2024/01/15 09:52:40;;;;;;;109.47;103.28;;;;;;;;;;5073522;28;20427;-61
2024/01/15 09:55:08;;;;;;;124.03;117.30;;;;;;;;;;5072826;28;20455;-61
2024/01/15 09:57:39;;;;;;;116.15;109.82;;;;;;;;;;5079965;28;20436;-61
2024/01/15 10:00:10;;;;;;;111.07;105.07;;;;;;;;;;5064848;28;20519;-61
2024/01/15 10:02:38;;;;;;;110.15;104.25;;;;;;;;;;5075619;28;20435;-61
2024/01/15 10:05:08;;;;;;;117.50;110.90;;;;;;;;;;5076527;28;20447;-61
2024/01/15 10:07:36;;;;;;;73.68;69.55;;;;;;;;;;5069552;28;20450;-61
2024/01/15 10:10:10;;;;;;;110.22;104.45;;;;;;;;;;5072658;28;20869;-61
2024/01/15 10:12:37;;;;;;;111.07;105.13;;;;;;;;;;5057427;28;20455;-61
2024/01/15 10:15:10;;;;;;;109.40;103.47;;;;;;;;;;5074025;28;20422;-61
2024/01/15 10:17:41;;;;;;;126.93;119.72;;;;;;;;;;5067908;28;20431;-61
2024/01/15 10:20:12;;;;;;;136.60;129.35;;;;;;;;;;5066644;28;20451;-61
2024/01/15 10:22:51;;;;;;;150.82;141.40;;;;;;;;;;5080729;28;20524;-61
2024/01/15 10:25:25;;;;;;;151.70;143.70;;;;;;;;;;5064174;28;20423;-61
2024/01/15 10:28:00;;;;;;;121.10;114.75;;;;;;;;;;5059770;28;20435;-61
2024/01/15 10:30:27;;;;;;;129.13;122.20;;;;;;;;;;5067846;28;20427;-61
2024/01/15 10:32:59;;;;;;;135.85;128.57;;;;;;;;;;5064935;28;20963;-61
2024/01/15 10:35:29;;;;;;;128.52;121.05;;;;;;;;;;5066534;28;20423;-62
2024/01/15 10:37:56;;;;;;;128.90;122.05;;;;;;;;;;5068952;28;20470;-61
2024/01/15 10:40:24;;;;;;;125.95;119.25;;;;;;;;;;5071960;28;20455;-61
2024/01/15 10:42:51;;;;;;;131.27;124.15;;;;;;;;;;5068900;28;20512;-61
2024/01/15 10:45:18;;;;;;;132.82;125.68;;;;;;;;;;5062525;28;20440;-61
2024/01/15 10:47:46;;;;;;;135.65;128.45;;;;;;;;;;5066992;28;20801;-61
2024/01/15 10:50:16;;;;;;;155.27;147.02;;;;;;;;;;5064965;28;20438;-61
2024/01/15 10:52:44;;;;;;;151.47;143.33;;;;;;;;;;5066961;28;20484;-61
2024/01/15 10:55:11;;;;;;;148.57;140.75;;;;;;;;;;5064060;28;20459;-61
2024/01/15 10:57:46;;;;;;;117.72;111.68;;;;;;;;;;5067876;28;20905;-61
2024/01/15 11:00:14;;;;;;;134.98;127.57;;;;;;;;;;5059769;28;20436;-61
2024/01/15 11:02:44;;;;;;;114.20;107.78;;;;;;;;;;5057892;28;20428;-61
2024/01/15 11:05:17;;;;;;;142.88;135.32;;;;;;;;;;5065196;28;20817;-62
2024/01/15 11:07:44;;;;;;;106.40;100.55;;;;;;;;;;5060647;28;20503;-61
2024/01/15 11:10:31;;;;;;;124.38;117.60;;;;;;;;;;5065673;28;20523;-61
2024/01/15 11:12:58;;;;;;;100.55;94.85;;;;;;;;;;5064645;28;20454;-61
2024/01/15 11:15:29;;;;;;;124.57;117.72;;;;;;;;;;5063718;28;20419;-61
2024/01/15 11:18:00;;;;;;;122.20;115.28;;;;;;;;;;5066600;28;20895;-61
2024/01/15 11:20:28;;;;;;;101.03;95.35;;;;;;;;;;5063877;28;20907;-61
2024/01/15 11:22:59;;;;;;;121.35;114.60;;;;;;;;;;5066688;28;20459;-61
2024/01/15 11:25:35;;;;;;;104.43;98.63;;;;;;;;;;5076625;28;20438;-62
2024/01/15 11:28:02;;;;;;;84.80;80.00;;;;;;;;;;5059130;28;20431;-62
2024/01/15 11:30:29;;;;;;;80.95;76.35;;;;;;;;;;5079222;28;20435;-61
2024/01/15 11:32:56;;;;;;;86.80;82.10;;;;;;;;;;5066609;28;20855;-61
2024/01/15 11:35:24;;;;;;;95.38;90.13;;;;;;;;;;5071643;28;20431;-62
2024/01/15 11:37:58;;;;;;;78.95;74.53;;;;;;;;;;5071723;28;20418;-61
2024/01/15 11:40:34;;;;;;;108.95;103.20;;;;;;;;;;5075158;28;20431;-62
2024/01/15 11:43:03;;;;;;;114.68;108.13;;;;;;;;;;5070277;28;20507;-61
2024/01/15 11:45:30;;;;;;;112.07;105.72;;;;;;;;;;5062772;28;20908;-62
2024/01/15 11:48:07;;;;;;;109.57;103.65;;;;;;;;;;5062048;28;20431;-62
2024/01/15 11:50:35;;;;;;;104.57;99.05;;;;;;;;;;5066958;28;20435;-62
2024/01/15 11:53:03;;;;;;;90.30;85.28;;;;;;;;;;5061335;28;20423;-62
2024/01/15 11:55:39;;;;;;;120.23;113.93;;;;;;;;;;5059606;28;20601;-62
2024/01/15 11:58:13;;;;;;;120.10;113.60;;;;;;;;;;5071075;28;20431;-62
2024/01/15 12:00:41;;;;;;;115.95;109.63;;;;;;;;;;5070223;28;20488;-62
2024/01/15 12:03:10;;;;;;;79.97;75.50;;;;;;;;;;5059262;28;21194;-62
2024/01/15 12:05:41;;;;;;;139.17;131.77;;;;;;;;;;5074527;28;20505;-62
2024/01/15 12:08:15;;;;;;;134.33;127.30;;;;;;;;;;5074791;28;20549;-62
2024/01/15 12:10:43;;;;;;;128.35;121.45;;;;;;;;;;5063474;28;20431;-62
2024/01/15 12:13:14;;;;;;;128.77;122.15;;;;;;;;;;5063058;28;20512;-62
2024/01/15 12:15:43;;;;;;;108.63;102.53;;;;;;;;;;5065380;28;20430;-62
2024/01/15 12:18:11;;;;;;;139.98;132.57;;;;;;;;;;5068786;28;20458;-62
2024/01/15 12:20:42;;;;;;;142.13;134.40;;;;;;;;;;5068615;28;20969;-62
2024/01/15 12:23:10;;;;;;;133.70;126.53;;;;;;;;;;5076611;28;20502;-62
2024/01/15 12:25:45;;;;;;;119.43;113.03;;;;;;;;;;5054615;28;20536;-62
2024/01/15 12:28:13;;;;;;;130.38;123.40;;;;;;;;;;5051784;28;21121;-62
2024/01/15 12:30:40;;;;;;;132.35;125.38;;;;;;;;;;5061912;28;20916;-62
2024/01/15 12:33:08;;;;;;;141.90;133.93;;;;;;;;;;5060245;28;20438;-63
2024/01/15 12:35:37;;;;;;;131.23;124.07;;;;;;;;;;5056788;28;20427;-62
2024/01/15 12:38:04;;;;;;;106.45;100.80;;;;;;;;;;5056019;28;20442;-64
2024/01/15 12:40:36;;;;;;;95.15;90.03;;;;;;;;;;5059470;28;20461;-62
2024/01/15 12:43:06;;;;;;;102.80;97.20;;;;;;;;;;5059190;28;20430;-62
2024/01/15 12:45:35;;;;;;;117.68;111.38;;;;;;;;;;5064323;28;20435;-62
2024/01/15 12:48:04;;;;;;;77.60;73.50;;;;;;;;;;5051269;28;20431;-62
2024/01/15 12:50:31;;;;;;;111.35;105.13;;;;;;;;;;5056710;28;20909;-62
2024/01/15 12:52:59;;;;;;;114.27;108.23;;;;;;;;;;5066147;28;20511;-62
2024/01/15 12:55:26;;;;;;;134.32;127.38;;;;;;;;;;5060148;28;20944;-62
2024/01/15 12:57:54;;;;;;;136.68;129.65;;;;;;;;;;5067285;28;20887;-63
2024/01/15 13:00:22;;;;;;;132.38;125.10;;;;;;;;;;5056689;28;20463;-63
2024/01/15 13:02:50;;;;;;;130.90;124.20;;;;;;;;;;5068413;28;20453;-63
2024/01/15 13:05:20;;;;;;;130.57;123.38;;;;;;;;;;5066451;28;20782;-63
2024/01/15 13:07:50;;;;;;;128.80;122.13;;;;;;;;;;5068244;28;20498;-62
2024/01/15 13:10:17;;;;;;;125.00;117.90;;;;;;;;;;5062723;28;20464;-62
2024/01/15 13:12:45;;;;;;;98.85;93.30;;;;;;;;;;5060125;28;20438;-63
2024/01/15 13:15:12;;;;;;;105.63;99.82;;;;;;;;;;5061415;28;20457;-62
2024/01/15 13:17:41;;;;;;;113.80;107.50;;;;;;;;;;5067620;28;20850;-63
2024/01/15 13:20:10;;;;;;;106.10;100.45;;;;;;;;;;5063383;28;21040;-62
2024/01/15 13:22:39;;;;;;;109.85;103.82;;;;;;;;;;5072069;28;20498;-63
2024/01/15 13:25:09;;;;;;;124.57;117.75;;;;;;;;;;5072470;28;20431;-62
2024/01/15 13:27:36;;;;;;;106.15;100.30;;;;;;;;;;5063064;28;20466;-62
2024/01/15 13:30:07;;;;;;;107.15;101.13;;;;;;;;;;5076082;28;20973;-62
2024/01/15 13:32:35;;;;;;;116.87;110.30;;;;;;;;;;5073777;28;20437;-62
2024/01/15 13:35:05;;;;;;;136.27;129.00;;;;;;;;;;5062430;28;20797;-62
2024/01/15 13:37:32;;;;;;;141.52;134.10;;;;;;;;;;5063065;28;20906;-63
2024/01/15 13:40:00;;;;;;;134.70;127.45;;;;;;;;;;5059566;28;20988;-63
2024/01/15 13:42:27;;;;;;;118.57;111.78;;;;;;;;;;5067360;28;20467;-63
2024/01/15 13:44:55;;;;;;;92.15;87.25;;;;;;;;;;5064338;28;20431;-62
2024/01/15 13:47:22;;;;;;;108.50;102.50;;;;;;;;;;5064430;28;20909;-63
2024/01/15 13:49:53;;;;;;;113.82;107.63;;;;;;;;;;5061748;28;20445;-62
2024/01/15 13:52:21;;;;;;;112.82;106.32;;;;;;;;;;5056869;28;20941;-63
2024/01/15 13:54:56;;;;;;;110.15;104.40;;;;;;;;;;5064259;28;20415;-62
2024/01/15 13:57:23;;;;;;;100.22;94.72;;;;;;;;;;5062295;28;20431;-63
2024/01/15 13:59:52;;;;;;;114.63;108.60;;;;;;;;;;5064971;28;20423;-62
2024/01/15 14:02:20;;;;;;;119.87;113.47;;;;;;;;;;5061628;28;20945;-62
2024/01/15 14:04:59;;;;;;;117.18;110.47;;;;;;;;;;5072397;28;20522;-62